Time;durP1;ratioP1;P1;durP2;ratioP2;P2;SDS_P1;SDS_P2;PMS_P1;PMS_P2;Temp;Humidity;BMP_temperature;BMP_pressure;BME280_temperature;BME280_humidity;BME280_pressure;Samples;Min_cycle;Max_cycle;Signal;HPM_P1;HPM_P2
2022/10/30 00:01:58;;;;;;;9.68;2.72;;;14.70;99.90;;;;;;5071492;28;20526;-73
2022/10/30 00:04:24;;;;;;;8.55;2.95;;;14.40;99.90;;;;;;5055853;28;20025;-73
2022/10/30 00:06:50;;;;;;;10.68;2.67;;;14.20;99.90;;;;;;5062589;28;20541;-74
2022/10/30 00:09:15;;;;;;;8.95;2.42;;;14.30;99.90;;;;;;5041886;28;20075;-73
2022/10/30 00:11:41;;;;;;;10.80;2.78;;;14.30;99.90;;;;;;5069220;28;20036;-73
2022/10/30 00:14:07;;;;;;;7.28;3.05;;;14.20;99.90;;;;;;5075442;28;20045;-73
2022/10/30 00:16:33;;;;;;;7.70;2.95;;;14.30;99.90;;;;;;5073261;28;20056;-73
2022/10/30 00:18:59;;;;;;;12.23;3.55;;;14.50;99.90;;;;;;5075421;28;20071;-73
2022/10/30 00:21:24;;;;;;;10.15;2.65;;;14.50;99.90;;;;;;5051247;28;20055;-73
2022/10/30 00:23:52;;;;;;;9.25;2.97;;;14.50;99.90;;;;;;5035405;28;20033;-73
2022/10/30 00:26:19;;;;;;;12.35;4.00;;;14.40;99.90;;;;;;5064999;28;20028;-73
2022/10/30 00:28:52;;;;;;;6.80;2.20;;;14.20;99.90;;;;;;5074898;28;20033;-73
2022/10/30 00:31:18;;;;;;;13.25;3.10;;;14.40;99.90;;;;;;5069400;28;20024;-73
2022/10/30 00:33:48;;;;;;;9.73;2.88;;;14.30;99.90;;;;;;5055516;28;20025;-73
2022/10/30 00:36:14;;;;;;;7.35;2.05;;;14.30;99.90;;;;;;5065475;28;20040;-73
2022/10/30 00:38:39;;;;;;;8.95;2.88;;;14.20;99.90;;;;;;5039853;28;20407;-73
2022/10/30 00:41:05;;;;;;;10.45;2.63;;;14.10;99.90;;;;;;5058773;28;20036;-73
2022/10/30 00:43:30;;;;;;;9.68;2.47;;;14.10;99.90;;;;;;5074087;28;20040;-73
2022/10/30 00:46:03;;;;;;;13.98;3.28;;;14.20;99.90;;;;;;5071934;28;20115;-73
2022/10/30 00:48:29;;;;;;;8.48;2.63;;;14.20;99.90;;;;;;5075014;28;20082;-73
2022/10/30 00:50:59;;;;;;;11.13;2.90;;;14.20;99.90;;;;;;5059966;28;20033;-73
2022/10/30 00:53:26;;;;;;;9.75;3.13;;;14.20;99.90;;;;;;5072882;28;20107;-73
2022/10/30 00:55:56;;;;;;;11.93;3.13;;;14.00;99.90;;;;;;5045977;28;20486;-73
2022/10/30 00:58:28;;;;;;;9.82;2.70;;;14.20;99.90;;;;;;5034742;28;20060;-73
2022/10/30 01:00:57;;;;;;;11.57;3.05;;;14.30;99.90;;;;;;5064383;28;20069;-73
2022/10/30 01:03:25;;;;;;;10.30;2.95;;;14.40;99.90;;;;;;5048259;28;20104;-73
2022/10/30 01:05:55;;;;;;;12.90;3.95;;;14.40;99.90;;;;;;5057795;28;20484;-73
2022/10/30 01:08:21;;;;;;;5.05;1.90;;;14.30;99.90;;;;;;5046583;28;20026;-73
2022/10/30 01:10:48;;;;;;;7.30;2.50;;;14.30;99.90;;;;;;5049134;28;20059;-73
2022/10/30 01:13:15;;;;;;;5.13;2.30;;;14.00;99.90;;;;;;5037285;28;20109;-73
2022/10/30 01:15:52;;;;;;;14.82;2.42;;;14.00;99.90;;;;;;5061470;28;20045;-73
2022/10/30 01:18:36;;;;;;;10.40;2.80;;;14.00;99.90;;;;;;5071738;28;20432;-73
2022/10/30 01:21:22;;;;;;;6.63;2.88;;;13.80;99.90;;;;;;5042116;28;20471;-73
2022/10/30 01:24:30;;;;;;;8.63;3.72;;;13.80;99.90;;;;;;5064192;28;20035;-73
2022/10/30 01:27:24;;;;;;;11.55;3.50;;;14.20;99.90;;;;;;5007848;28;20407;-73
2022/10/30 01:30:05;;;;;;;9.00;2.67;;;14.10;99.90;;;;;;5020763;28;20178;-73
2022/10/30 01:32:33;;;;;;;12.25;3.05;;;13.90;99.90;;;;;;5057334;28;20162;-73
2022/10/30 01:35:18;;;;;;;8.98;2.78;;;14.00;99.90;;;;;;5073654;28;20486;-73
2022/10/30 01:37:53;;;;;;;15.18;3.08;;;14.10;99.90;;;;;;5066765;28;20043;-73
2022/10/30 01:40:20;;;;;;;11.95;2.80;;;14.20;99.90;;;;;;5074184;28;20081;-73
2022/10/30 01:42:53;;;;;;;9.60;2.65;;;14.20;99.90;;;;;;5071330;28;20064;-73
2022/10/30 01:45:25;;;;;;;11.57;3.00;;;13.90;99.90;;;;;;5064527;28;20116;-73
2022/10/30 01:48:08;;;;;;;7.90;2.97;;;13.90;99.90;;;;;;5053898;28;20031;-73
2022/10/30 01:51:12;;;;;;;7.40;2.25;;;13.70;99.90;;;;;;5063065;28;20037;-73
2022/10/30 01:54:00;;;;;;;11.25;2.97;;;13.70;99.90;;;;;;5021654;28;20128;-73
2022/10/30 01:56:49;;;;;;;6.82;2.45;;;13.90;99.90;;;;;;5073567;28;20039;-73
2022/10/30 01:59:22;;;;;;;7.75;2.67;;;14.00;99.90;;;;;;5033538;28;20037;-73
2022/10/30 02:01:48;;;;;;;12.45;2.90;;;14.30;99.90;;;;;;5034824;28;20033;-73
2022/10/30 02:04:14;;;;;;;12.05;3.22;;;14.10;99.90;;;;;;5040249;28;20033;-73
2022/10/30 02:06:40;;;;;;;9.07;2.35;;;14.20;99.90;;;;;;5049387;28;20082;-73
2022/10/30 02:09:07;;;;;;;9.90;3.50;;;14.00;99.90;;;;;;5071608;28;20036;-73
2022/10/30 02:11:33;;;;;;;11.13;2.78;;;13.90;99.90;;;;;;5054006;28;20044;-73
2022/10/30 02:14:04;;;;;;;10.90;3.55;;;13.70;99.90;;;;;;5067457;28;20043;-73
2022/10/30 02:16:32;;;;;;;10.82;2.33;;;13.90;99.90;;;;;;5062900;28;20021;-73
2022/10/30 02:18:57;;;;;;;11.88;2.65;;;14.00;99.90;;;;;;5072812;28;20020;-73
2022/10/30 02:21:23;;;;;;;13.35;3.15;;;14.10;99.90;;;;;;5047046;28;20414;-73
2022/10/30 02:23:49;;;;;;;10.95;3.67;;;14.00;99.90;;;;;;5065764;28;20055;-73
2022/10/30 02:26:14;;;;;;;8.60;2.17;;;14.00;99.90;;;;;;5063290;28;20074;-73
2022/10/30 02:28:40;;;;;;;8.85;3.05;;;14.00;99.90;;;;;;5055018;28;20032;-73
2022/10/30 02:31:06;;;;;;;7.43;2.67;;;13.70;99.90;;;;;;5066527;28;20039;-73
2022/10/30 02:33:32;;;;;;;8.02;2.40;;;13.60;99.90;;;;;;5069092;28;20475;-73
2022/10/30 02:35:57;;;;;;;9.80;2.85;;;13.60;99.90;;;;;;5068874;28;20040;-73
2022/10/30 02:38:23;;;;;;;9.05;2.97;;;13.70;99.90;;;;;;5054891;28;20121;-73
2022/10/30 02:40:48;;;;;;;9.52;2.13;;;13.80;99.90;;;;;;5059966;28;20159;-73
2022/10/30 02:43:14;;;;;;;11.00;2.50;;;14.00;99.90;;;;;;5058252;28;20059;-73
2022/10/30 02:45:40;;;;;;;7.47;2.85;;;13.90;99.90;;;;;;5071270;28;20029;-73
2022/10/30 02:48:06;;;;;;;8.10;2.33;;;14.10;99.90;;;;;;5058711;28;20405;-73
2022/10/30 02:50:31;;;;;;;10.38;3.38;;;14.10;99.90;;;;;;5072711;28;20029;-73
2022/10/30 02:53:00;;;;;;;6.82;2.10;;;14.10;99.90;;;;;;5067128;28;20555;-73
2022/10/30 02:55:25;;;;;;;7.18;2.50;;;14.10;99.90;;;;;;5036431;28;20053;-73
2022/10/30 02:57:51;;;;;;;9.38;2.40;;;13.80;99.90;;;;;;5040492;28;20172;-73
2022/10/30 03:00:17;;;;;;;10.40;2.70;;;13.90;99.90;;;;;;5062017;28;20061;-70
2022/10/30 03:02:42;;;;;;;10.35;3.25;;;13.70;99.90;;;;;;5053431;28;20108;-72
2022/10/30 03:05:08;;;;;;;10.00;3.13;;;13.70;99.90;;;;;;5072592;28;20078;-71
2022/10/30 03:07:34;;;;;;;13.18;4.18;;;13.60;99.90;;;;;;5054013;28;20021;-72
2022/10/30 03:09:59;;;;;;;15.60;3.47;;;13.60;99.90;;;;;;5070242;28;20028;-72
2022/10/30 03:12:25;;;;;;;7.40;2.75;;;13.30;99.90;;;;;;5049273;28;20033;-71
2022/10/30 03:14:51;;;;;;;10.43;3.45;;;13.20;99.90;;;;;;5062475;28;20052;-71
2022/10/30 03:17:16;;;;;;;8.98;3.42;;;13.20;99.90;;;;;;5069664;28;20115;-71
2022/10/30 03:19:42;;;;;;;7.68;2.60;;;13.00;99.90;;;;;;5064151;28;20079;-72
2022/10/30 03:22:08;;;;;;;8.43;2.65;;;13.00;99.90;;;;;;5056885;28;20035;-71
2022/10/30 03:24:33;;;;;;;7.82;3.03;;;13.30;99.90;;;;;;5069767;28;20099;-71
2022/10/30 03:26:59;;;;;;;8.75;2.80;;;13.40;99.90;;;;;;5067732;28;20487;-71
2022/10/30 03:29:24;;;;;;;14.35;2.85;;;13.50;99.90;;;;;;5035394;28;20047;-71
2022/10/30 03:31:50;;;;;;;7.63;2.63;;;13.50;99.90;;;;;;5066159;28;20071;-71
2022/10/30 03:34:16;;;;;;;13.57;3.50;;;13.50;99.90;;;;;;5072129;28;20068;-71
2022/10/30 03:36:41;;;;;;;11.93;3.22;;;13.50;99.90;;;;;;5067922;28;20040;-71
2022/10/30 03:39:07;;;;;;;10.05;4.13;;;13.60;99.90;;;;;;5073647;28;20032;-71
2022/10/30 03:41:33;;;;;;;10.48;2.75;;;13.50;99.90;;;;;;5071429;28;20029;-71
2022/10/30 03:43:58;;;;;;;9.73;2.53;;;13.80;99.90;;;;;;5049446;28;20112;-71
2022/10/30 03:46:24;;;;;;;8.32;2.60;;;13.90;99.90;;;;;;5052868;28;20067;-72
2022/10/30 03:48:50;;;;;;;7.07;2.47;;;13.50;99.90;;;;;;5061686;28;20020;-71
2022/10/30 03:51:15;;;;;;;9.02;2.63;;;13.20;99.90;;;;;;5056484;28;20032;-71
2022/10/30 03:53:41;;;;;;;9.18;3.58;;;13.10;99.90;;;;;;5060831;28;20025;-71
2022/10/30 03:56:08;;;;;;;11.15;2.70;;;13.10;99.90;;;;;;5075562;28;20028;-71
2022/10/30 03:58:34;;;;;;;12.45;3.67;;;13.00;99.90;;;;;;5073251;28;20035;-71
2022/10/30 04:01:02;;;;;;;8.65;2.95;;;13.50;99.90;;;;;;5068511;28;20036;-72
2022/10/30 04:03:27;;;;;;;7.45;2.38;;;13.60;99.90;;;;;;5036302;28;20072;-72
2022/10/30 04:05:53;;;;;;;10.85;3.10;;;13.90;99.90;;;;;;5016401;28;20451;-72
2022/10/30 04:08:18;;;;;;;9.32;2.80;;;13.80;99.90;;;;;;5033750;28;20108;-72
2022/10/30 04:10:45;;;;;;;9.73;3.30;;;13.90;99.90;;;;;;5070597;28;20032;-72
2022/10/30 04:13:16;;;;;;;8.75;2.30;;;13.70;99.90;;;;;;5039541;28;20115;-71
2022/10/30 04:15:42;;;;;;;9.93;3.10;;;13.80;99.90;;;;;;5029855;28;20037;-72
2022/10/30 04:18:12;;;;;;;7.07;2.10;;;13.80;99.90;;;;;;5028128;28;20029;-72
2022/10/30 04:20:38;;;;;;;8.98;2.53;;;14.00;99.90;;;;;;5027653;28;20091;-72
2022/10/30 04:23:06;;;;;;;9.10;2.75;;;14.10;99.90;;;;;;5029710;28;20068;-72
2022/10/30 04:25:33;;;;;;;10.98;3.33;;;14.10;99.90;;;;;;5066828;28;20091;-72
2022/10/30 04:27:59;;;;;;;8.27;2.78;;;14.10;99.90;;;;;;5066554;28;20089;-72
2022/10/30 04:30:26;;;;;;;14.05;3.47;;;13.70;99.90;;;;;;5065692;28;20560;-72
2022/10/30 04:32:55;;;;;;;7.03;2.33;;;13.60;99.90;;;;;;5070357;28;20037;-72
2022/10/30 04:35:24;;;;;;;9.75;3.83;;;13.60;99.90;;;;;;5065802;28;20050;-72
2022/10/30 04:37:57;;;;;;;10.55;2.47;;;13.50;99.90;;;;;;5030759;28;20022;-72
2022/10/30 04:40:25;;;;;;;7.78;2.70;;;13.40;99.90;;;;;;5045539;28;20033;-72
2022/10/30 04:42:50;;;;;;;7.30;2.22;;;13.30;99.90;;;;;;5047889;28;20128;-72
2022/10/30 04:45:17;;;;;;;14.85;3.55;;;13.40;99.90;;;;;;5049642;28;20124;-72
2022/10/30 04:47:43;;;;;;;9.25;2.60;;;13.60;99.90;;;;;;5048854;28;20029;-72
2022/10/30 04:50:09;;;;;;;10.05;2.83;;;13.60;99.90;;;;;;5063493;28;20101;-72
2022/10/30 04:52:35;;;;;;;17.27;3.30;;;13.50;99.90;;;;;;5056863;28;20116;-72
2022/10/30 04:55:02;;;;;;;10.95;3.58;;;13.60;99.90;;;;;;5049196;28;20048;-72
2022/10/30 04:57:27;;;;;;;11.20;3.47;;;13.50;99.90;;;;;;5070264;28;20031;-72
2022/10/30 04:59:53;;;;;;;5.88;2.60;;;13.40;99.90;;;;;;5059390;28;20038;-71
2022/10/30 05:02:19;;;;;;;7.18;2.67;;;13.30;99.90;;;;;;5045994;28;20044;-72
2022/10/30 05:04:45;;;;;;;7.30;2.80;;;13.20;99.90;;;;;;5045166;28;20028;-72
2022/10/30 05:07:12;;;;;;;6.90;2.55;;;13.10;99.90;;;;;;5070088;28;20032;-72
2022/10/30 05:09:38;;;;;;;11.85;2.90;;;13.00;99.90;;;;;;5058572;28;20056;-72
2022/10/30 05:12:04;;;;;;;7.18;2.42;;;13.00;99.90;;;;;;5030184;28;20479;-71
2022/10/30 05:14:31;;;;;;;8.20;3.20;;;12.80;99.90;;;;;;5049933;28;20052;-72
2022/10/30 05:16:57;;;;;;;10.73;3.08;;;13.00;99.90;;;;;;5058229;28;20383;-72
2022/10/30 05:19:22;;;;;;;5.75;2.78;;;13.00;99.90;;;;;;5053022;28;20035;-72
2022/10/30 05:21:48;;;;;;;11.20;2.97;;;13.00;99.90;;;;;;5070125;28;20388;-71
2022/10/30 05:24:13;;;;;;;8.48;3.22;;;13.40;99.90;;;;;;5067792;28;20104;-72
2022/10/30 05:26:39;;;;;;;9.27;2.72;;;13.20;99.90;;;;;;5061927;28;20033;-71
2022/10/30 05:29:05;;;;;;;12.60;2.38;;;13.10;99.90;;;;;;5058732;28;20037;-72
2022/10/30 05:31:30;;;;;;;11.35;3.78;;;13.40;99.90;;;;;;5049757;28;20040;-71
2022/10/30 05:33:56;;;;;;;10.57;3.20;;;13.40;99.90;;;;;;5061910;28;20037;-71
2022/10/30 05:36:22;;;;;;;9.77;3.58;;;13.30;99.90;;;;;;5066346;28;20528;-72
2022/10/30 05:38:47;;;;;;;10.90;3.60;;;13.10;99.90;;;;;;5064802;28;20178;-71
2022/10/30 05:41:13;;;;;;;13.02;2.67;;;13.10;99.90;;;;;;5056863;28;20025;-71
2022/10/30 05:43:39;;;;;;;9.02;2.20;;;13.10;99.90;;;;;;5056886;28;20372;-72
2022/10/30 05:46:05;;;;;;;9.13;3.05;;;13.00;99.90;;;;;;5047056;28;20509;-71
2022/10/30 05:48:30;;;;;;;6.53;2.72;;;12.90;99.90;;;;;;5064689;28;20040;-71
2022/10/30 05:50:56;;;;;;;8.13;2.63;;;12.90;99.90;;;;;;5069703;28;20054;-72
2022/10/30 05:53:22;;;;;;;10.25;3.13;;;12.60;99.90;;;;;;5053730;28;20090;-72
2022/10/30 05:55:48;;;;;;;12.73;3.55;;;12.50;99.90;;;;;;5049218;28;20036;-72
2022/10/30 05:58:14;;;;;;;8.48;2.70;;;12.50;99.90;;;;;;5057814;28;20033;-72
2022/10/30 06:00:41;;;;;;;7.30;2.38;;;12.40;99.90;;;;;;5061677;28;20022;-71
2022/10/30 06:03:11;;;;;;;10.45;2.72;;;12.30;99.90;;;;;;5038049;28;20091;-72
2022/10/30 06:05:37;;;;;;;12.55;2.58;;;12.30;99.90;;;;;;5053918;28;20037;-72
2022/10/30 06:08:05;;;;;;;11.05;3.10;;;12.60;99.90;;;;;;5059047;28;20047;-71
2022/10/30 06:10:31;;;;;;;7.97;2.25;;;13.20;99.90;;;;;;5068784;28;20086;-72
2022/10/30 06:13:01;;;;;;;11.02;3.50;;;13.20;99.90;;;;;;5058989;28;20487;-71
2022/10/30 06:15:28;;;;;;;7.85;2.53;;;13.00;99.90;;;;;;5067016;28;20135;-71
2022/10/30 06:17:54;;;;;;;10.77;3.15;;;12.90;99.90;;;;;;5055792;28;20034;-71
2022/10/30 06:20:22;;;;;;;7.63;2.47;;;12.90;99.90;;;;;;5043835;28;20025;-71
2022/10/30 06:22:56;;;;;;;11.52;3.05;;;13.00;99.90;;;;;;5054775;28;20039;-72
2022/10/30 06:25:22;;;;;;;9.57;3.95;;;13.00;99.90;;;;;;5047479;28;20744;-71
2022/10/30 06:27:48;;;;;;;10.52;3.08;;;12.90;99.90;;;;;;5053464;28;20114;-71
2022/10/30 06:30:13;;;;;;;10.82;2.53;;;13.10;99.90;;;;;;5051819;28;20490;-72
2022/10/30 06:32:39;;;;;;;14.32;2.95;;;13.20;99.90;;;;;;5062336;28;20512;-72
2022/10/30 06:35:05;;;;;;;10.10;3.45;;;13.60;99.90;;;;;;5056181;28;20072;-72
2022/10/30 06:37:31;;;;;;;8.70;2.72;;;13.20;99.90;;;;;;5068335;28;20510;-72
2022/10/30 06:39:56;;;;;;;10.68;3.85;;;13.00;99.90;;;;;;5051071;28;20055;-72
2022/10/30 06:42:22;;;;;;;8.73;2.60;;;13.00;99.90;;;;;;5049553;28;20064;-71
2022/10/30 06:44:47;;;;;;;9.35;2.50;;;13.00;99.90;;;;;;5047615;28;20116;-72
2022/10/30 06:47:14;;;;;;;10.23;3.17;;;13.20;99.90;;;;;;5065716;28;20036;-71
2022/10/30 06:49:39;;;;;;;9.38;2.53;;;13.20;99.90;;;;;;5067983;28;20029;-72
2022/10/30 06:52:05;;;;;;;12.80;4.03;;;13.10;99.90;;;;;;5047503;28;20375;-72
2022/10/30 06:54:31;;;;;;;7.93;2.72;;;13.00;99.90;;;;;;5024607;28;20021;-72
2022/10/30 06:56:56;;;;;;;8.40;2.70;;;13.20;99.90;;;;;;5062546;28;20119;-72
2022/10/30 06:59:23;;;;;;;8.32;2.55;;;13.10;99.90;;;;;;5052462;28;20093;-72
2022/10/30 07:01:48;;;;;;;8.13;4.45;;;13.20;99.90;;;;;;5054292;28;20032;-71
2022/10/30 07:04:14;;;;;;;9.32;3.50;;;13.00;99.90;;;;;;5051315;28;20036;-71
2022/10/30 07:06:40;;;;;;;7.78;2.78;;;12.80;99.90;;;;;;5028298;28;20029;-72
2022/10/30 07:09:06;;;;;;;9.43;2.58;;;12.80;99.90;;;;;;5036490;28;20040;-71
2022/10/30 07:11:31;;;;;;;6.82;3.10;;;13.00;99.90;;;;;;5064308;28;20044;-71
2022/10/30 07:13:57;;;;;;;11.32;4.00;;;13.00;99.90;;;;;;5068618;28;20051;-72
2022/10/30 07:16:22;;;;;;;8.90;3.92;;;12.90;99.90;;;;;;5032241;28;20037;-73
2022/10/30 07:18:48;;;;;;;10.18;3.78;;;12.70;99.90;;;;;;5046935;28;20025;-73
2022/10/30 07:21:14;;;;;;;10.02;4.35;;;12.60;99.90;;;;;;5041741;28;20037;-73
2022/10/30 07:23:39;;;;;;;11.70;3.15;;;12.70;99.90;;;;;;5042869;28;20108;-74
2022/10/30 07:26:06;;;;;;;9.82;3.35;;;13.10;99.90;;;;;;5044103;28;20087;-73
2022/10/30 07:28:32;;;;;;;12.63;3.90;;;13.50;99.90;;;;;;5037779;28;20021;-74
2022/10/30 07:30:58;;;;;;;7.57;2.20;;;13.90;99.90;;;;;;5032770;28;20025;-73
2022/10/30 07:33:24;;;;;;;10.60;3.03;;;13.90;99.90;;;;;;5041623;28;20025;-74
2022/10/30 07:35:50;;;;;;;10.35;2.83;;;14.00;99.90;;;;;;5040843;28;20036;-73
2022/10/30 07:38:17;;;;;;;13.95;3.78;;;13.80;99.90;;;;;;5041424;28;20924;-72
2022/10/30 07:40:43;;;;;;;9.40;2.60;;;13.40;99.90;;;;;;5042283;28;20066;-72
2022/10/30 07:43:12;;;;;;;10.65;3.60;;;13.20;99.90;;;;;;5027885;28;20061;-73
2022/10/30 07:45:38;;;;;;;7.07;2.75;;;13.20;99.90;;;;;;5040502;28;20072;-72
2022/10/30 07:48:04;;;;;;;11.60;2.83;;;13.30;99.90;;;;;;5028711;28;20037;-73
2022/10/30 07:50:30;;;;;;;7.50;2.60;;;12.90;99.90;;;;;;5040998;28;20108;-72
2022/10/30 07:52:57;;;;;;;6.57;2.45;;;13.40;99.90;;;;;;5041807;28;20025;-73
2022/10/30 07:55:23;;;;;;;9.13;2.85;;;13.80;99.90;;;;;;5033453;28;20040;-72
2022/10/30 07:57:49;;;;;;;7.63;2.75;;;14.10;99.90;;;;;;5024988;28;20033;-72
2022/10/30 08:00:15;;;;;;;11.02;2.63;;;14.10;99.90;;;;;;5043918;28;20404;-72
2022/10/30 08:02:41;;;;;;;9.65;2.63;;;13.90;99.90;;;;;;5024158;28;20017;-72
2022/10/30 08:05:07;;;;;;;10.05;3.72;;;13.90;99.90;;;;;;5033205;28;20509;-72
2022/10/30 08:07:36;;;;;;;8.88;2.97;;;14.20;99.90;;;;;;5051328;28;20014;-72
2022/10/30 08:10:03;;;;;;;9.88;4.00;;;14.40;99.90;;;;;;5039840;28;20033;-72
2022/10/30 08:12:31;;;;;;;10.60;3.42;;;14.30;99.90;;;;;;5042994;28;20029;-73
2022/10/30 08:14:56;;;;;;;12.48;3.38;;;13.80;99.90;;;;;;5045631;28;20132;-73
2022/10/30 08:17:22;;;;;;;9.93;3.35;;;13.70;99.90;;;;;;5045019;28;20199;-74
2022/10/30 08:19:48;;;;;;;9.25;2.72;;;13.90;99.90;;;;;;5029094;28;20364;-74
2022/10/30 08:22:14;;;;;;;11.48;2.92;;;13.70;99.90;;;;;;5029217;28;20036;-76
2022/10/30 08:24:39;;;;;;;9.20;2.70;;;13.90;99.90;;;;;;5041662;28;20032;-75
2022/10/30 08:27:05;;;;;;;10.38;3.92;;;13.90;99.90;;;;;;5047086;28;20371;-75
2022/10/30 08:29:31;;;;;;;9.25;3.22;;;13.90;99.90;;;;;;5047182;28;20035;-75
2022/10/30 08:31:57;;;;;;;12.32;2.42;;;14.00;99.90;;;;;;5044837;28;20032;-76
2022/10/30 08:34:23;;;;;;;13.70;3.35;;;14.30;99.90;;;;;;5048669;28;20076;-76
2022/10/30 08:36:50;;;;;;;9.35;3.72;;;14.40;99.90;;;;;;5049629;28;20028;-79
2022/10/30 08:39:16;;;;;;;8.18;2.97;;;14.00;99.90;;;;;;5037506;28;20112;-74
2022/10/30 08:41:43;;;;;;;9.88;3.13;;;13.90;99.90;;;;;;5046768;28;20028;-74
2022/10/30 08:44:08;;;;;;;10.60;2.78;;;14.10;99.90;;;;;;5047905;28;20033;-74
2022/10/30 08:46:34;;;;;;;12.38;3.17;;;14.20;99.90;;;;;;5060343;28;20055;-74
2022/10/30 08:49:00;;;;;;;13.25;3.33;;;14.10;99.90;;;;;;5049333;28;20049;-73
2022/10/30 08:51:26;;;;;;;12.90;3.58;;;14.20;99.90;;;;;;5053119;28;20028;-73
2022/10/30 08:53:51;;;;;;;13.13;2.47;;;14.30;99.90;;;;;;5058673;28;20025;-72
2022/10/30 08:56:17;;;;;;;13.25;3.17;;;14.50;99.90;;;;;;5055167;28;20037;-72
2022/10/30 08:58:43;;;;;;;9.05;3.03;;;14.70;99.90;;;;;;5066762;28;20549;-73
2022/10/30 09:01:09;;;;;;;11.10;3.03;;;14.70;99.90;;;;;;5049743;28;20108;-73
2022/10/30 09:03:35;;;;;;;13.55;3.33;;;14.80;99.90;;;;;;5044791;28;20045;-74
2022/10/30 09:06:01;;;;;;;8.77;2.83;;;15.00;99.90;;;;;;5046013;28;20029;-72
2022/10/30 09:08:27;;;;;;;12.23;2.85;;;15.10;99.90;;;;;;5043924;28;20036;-72
2022/10/30 09:10:54;;;;;;;12.63;2.65;;;15.20;99.90;;;;;;5056153;28;20041;-73
2022/10/30 09:13:20;;;;;;;11.68;2.90;;;15.30;99.90;;;;;;5046814;28;20471;-72
2022/10/30 09:15:46;;;;;;;10.02;3.00;;;15.20;99.90;;;;;;5043370;28;20049;-74
2022/10/30 09:18:11;;;;;;;6.05;2.58;;;15.20;99.90;;;;;;5040685;28;20029;-73
2022/10/30 09:20:37;;;;;;;10.50;3.85;;;15.10;99.90;;;;;;5046272;28;20029;-74
2022/10/30 09:23:03;;;;;;;7.45;3.08;;;15.20;99.90;;;;;;5056492;28;20155;-74
2022/10/30 09:25:28;;;;;;;10.05;3.60;;;15.40;99.90;;;;;;5025979;28;20083;-74
2022/10/30 09:27:54;;;;;;;10.18;2.80;;;15.30;99.90;;;;;;5065724;28;20562;-74
2022/10/30 09:30:20;;;;;;;13.07;3.80;;;15.20;99.90;;;;;;5049121;28;20132;-74
2022/10/30 09:32:54;;;;;;;12.02;2.58;;;15.10;99.90;;;;;;5048753;28;20025;-74
2022/10/30 09:35:19;;;;;;;12.10;3.60;;;15.30;99.90;;;;;;5046526;28;20063;-73
2022/10/30 09:37:45;;;;;;;12.98;4.22;;;15.40;99.90;;;;;;5044752;28;20534;-71
2022/10/30 09:40:31;;;;;;;14.15;3.72;;;15.60;99.90;;;;;;5041045;28;20042;-73
2022/10/30 09:43:07;;;;;;;26.83;7.22;;;15.60;99.90;;;;;;5032992;28;20048;-72
2022/10/30 09:45:58;;;;;;;13.90;3.75;;;15.40;99.90;;;;;;5036280;28;20072;-73
2022/10/30 09:48:36;;;;;;;11.15;3.28;;;15.40;99.90;;;;;;5030065;28;20056;-73
2022/10/30 09:51:08;;;;;;;11.07;3.13;;;15.40;99.90;;;;;;5047735;28;20028;-72
2022/10/30 09:53:54;;;;;;;10.13;3.95;;;15.50;99.90;;;;;;5046620;28;20036;-71
2022/10/30 09:56:30;;;;;;;13.20;4.22;;;15.60;99.90;;;;;;5048839;28;20045;-72
2022/10/30 09:59:04;;;;;;;13.30;3.72;;;15.70;99.90;;;;;;5053800;28;20120;-71
2022/10/30 10:01:40;;;;;;;12.82;3.25;;;15.80;99.90;;;;;;5029797;28;20035;-73
2022/10/30 10:04:33;;;;;;;12.48;3.20;;;15.80;99.90;;;;;;5036158;28;20025;-73
2022/10/30 10:07:28;;;;;;;15.85;4.32;;;15.80;99.90;;;;;;5039578;28;20037;-73
2022/10/30 10:10:06;;;;;;;82.60;49.42;;;15.80;99.90;;;;;;5045091;28;20860;-73
2022/10/30 10:12:42;;;;;;;14.35;6.95;;;15.90;99.90;;;;;;5065278;28;20032;-73
2022/10/30 10:15:31;;;;;;;9.63;3.72;;;16.00;99.90;;;;;;5031698;28;20052;-73
2022/10/30 10:18:00;;;;;;;10.02;3.15;;;16.00;99.90;;;;;;5030656;28;20046;-73
2022/10/30 10:20:47;;;;;;;12.70;5.80;;;16.10;99.90;;;;;;5038095;28;20029;-73
2022/10/30 10:23:40;;;;;;;25.45;12.73;;;16.10;99.90;;;;;;5039195;28;20052;-73
2022/10/30 10:26:43;;;;;;;12.50;4.30;;;16.20;99.90;;;;;;5040956;28;20043;-73
2022/10/30 10:29:31;;;;;;;14.15;3.92;;;16.40;99.90;;;;;;5050304;28;20062;-73
2022/10/30 10:32:23;;;;;;;9.85;3.63;;;16.50;99.90;;;;;;5033084;28;20025;-73
2022/10/30 10:34:54;;;;;;;7.97;3.05;;;16.50;99.90;;;;;;5038626;28;20387;-73
2022/10/30 10:37:26;;;;;;;14.25;3.58;;;16.70;99.90;;;;;;5036292;28;20129;-73
2022/10/30 10:40:20;;;;;;;15.77;3.92;;;16.80;99.90;;;;;;5043016;28;20065;-74
2022/10/30 10:43:01;;;;;;;10.57;2.78;;;16.90;99.90;;;;;;5035079;28;20028;-73
2022/10/30 10:45:54;;;;;;;10.38;2.60;;;17.00;99.90;;;;;;5031361;28;20029;-73
2022/10/30 10:48:57;;;;;;;10.82;2.88;;;17.10;99.90;;;;;;5028550;28;20115;-73
2022/10/30 10:51:30;;;;;;;10.07;3.08;;;17.30;99.90;;;;;;5043513;28;20368;-73
2022/10/30 10:54:04;;;;;;;11.88;3.13;;;17.40;99.90;;;;;;5047616;28;20025;-73
2022/10/30 10:56:35;;;;;;;10.60;3.25;;;17.50;99.90;;;;;;5050562;28;20040;-73
2022/10/30 10:59:07;;;;;;;9.50;2.88;;;17.60;99.60;;;;;;5065418;28;20028;-73
2022/10/30 11:01:38;;;;;;;10.93;4.50;;;17.60;99.80;;;;;;5057415;28;20367;-73
2022/10/30 11:04:30;;;;;;;10.25;3.30;;;17.60;99.90;;;;;;5049799;28;20040;-73
2022/10/30 11:06:57;;;;;;;14.55;3.05;;;17.50;99.50;;;;;;5042104;28;20036;-73
2022/10/30 11:09:26;;;;;;;13.55;4.07;;;17.50;99.20;;;;;;5053249;28;20032;-73
2022/10/30 11:11:54;;;;;;;11.68;3.67;;;17.60;99.50;;;;;;5043012;28;20530;-73
2022/10/30 11:14:22;;;;;;;14.02;4.28;;;17.70;99.20;;;;;;5010834;28;20460;-73
2022/10/30 11:17:14;;;;;;;13.88;3.22;;;17.90;99.40;;;;;;5023985;28;20041;-73
2022/10/30 11:19:40;;;;;;;10.80;3.63;;;18.00;99.20;;;;;;5027264;28;20034;-73
2022/10/30 11:22:30;;;;;;;11.38;3.60;;;18.10;99.40;;;;;;5026101;28;20029;-74
2022/10/30 11:25:20;;;;;;;11.50;3.97;;;18.30;99.30;;;;;;5023690;28;20041;-74
2022/10/30 11:27:48;;;;;;;12.55;5.97;;;18.40;99.20;;;;;;5022953;28;20037;-75
2022/10/30 11:30:23;;;;;;;17.25;5.15;;;18.40;98.90;;;;;;5041529;28;20095;-75
2022/10/30 11:32:49;;;;;;;10.25;3.30;;;18.50;99.30;;;;;;5044041;28;20025;-75
2022/10/30 11:35:17;;;;;;;7.03;2.35;;;18.50;99.10;;;;;;5026729;28;20115;-75
2022/10/30 11:37:45;;;;;;;11.27;2.65;;;18.50;99.10;;;;;;5040800;28;20060;-75
2022/10/30 11:40:10;;;;;;;14.05;3.25;;;18.50;99.00;;;;;;5034090;28;20072;-75
2022/10/30 11:43:01;;;;;;;14.63;3.80;;;18.60;99.60;;;;;;5045740;28;20247;-75
2022/10/30 11:45:42;;;;;;;10.02;2.63;;;18.70;99.00;;;;;;5041845;28;20624;-75
2022/10/30 11:48:36;;;;;;;12.98;5.60;;;18.80;99.20;;;;;;5053933;28;20040;-75
2022/10/30 11:51:04;;;;;;;15.52;6.35;;;19.00;98.40;;;;;;5055508;28;20124;-75
2022/10/30 11:53:35;;;;;;;22.15;11.73;;;19.00;98.80;;;;;;5060041;28;20020;-75
2022/10/30 11:56:02;;;;;;;13.13;4.07;;;19.10;98.60;;;;;;5067972;28;20033;-75
2022/10/30 11:58:33;;;;;;;11.95;3.85;;;19.00;98.40;;;;;;5050486;28;20033;-75
2022/10/30 12:01:30;;;;;;;8.18;3.63;;;18.90;98.70;;;;;;5032118;28;20056;-75
2022/10/30 12:04:13;;;;;;;9.85;2.90;;;19.00;99.20;;;;;;5063465;28;20037;-75
2022/10/30 12:06:39;;;;;;;8.32;3.10;;;19.10;99.10;;;;;;5044235;28;20016;-75
2022/10/30 12:09:21;;;;;;;9.18;3.45;;;19.10;99.20;;;;;;5059551;28;20402;-75
2022/10/30 12:11:48;;;;;;;16.65;3.85;;;19.20;98.40;;;;;;5056777;28;20657;-75
2022/10/30 12:14:20;;;;;;;12.75;2.75;;;19.20;98.70;;;;;;5070170;28;20033;-75
2022/10/30 12:16:49;;;;;;;9.15;3.10;;;19.20;98.40;;;;;;5042302;28;20045;-75
2022/10/30 12:19:16;;;;;;;12.10;3.35;;;19.20;98.60;;;;;;5051573;28;20029;-75
2022/10/30 12:21:55;;;;;;;14.98;3.75;;;19.20;97.80;;;;;;5040080;28;20055;-75
2022/10/30 12:24:34;;;;;;;11.85;3.17;;;19.20;98.40;;;;;;5031654;28;20035;-75
2022/10/30 12:27:03;;;;;;;14.85;4.22;;;19.40;98.50;;;;;;5048988;28;20083;-75
2022/10/30 12:30:01;;;;;;;11.57;3.40;;;19.40;98.20;;;;;;5030513;28;20033;-75
2022/10/30 12:32:48;;;;;;;9.57;3.90;;;19.30;97.90;;;;;;5031112;28;20137;-75
2022/10/30 12:35:54;;;;;;;16.13;7.22;;;19.40;98.00;;;;;;5043743;28;20036;-75
2022/10/30 12:38:42;;;;;;;24.20;5.28;;;19.60;97.90;;;;;;4995062;28;20383;-74
2022/10/30 12:41:35;;;;;;;11.43;3.75;;;19.60;97.20;;;;;;5033743;28;20072;-75
2022/10/30 12:44:09;;;;;;;10.63;3.05;;;19.70;97.80;;;;;;5030741;28;20068;-75
2022/10/30 12:46:50;;;;;;;11.18;3.20;;;19.70;97.50;;;;;;5029993;28;20032;-75
2022/10/30 12:49:29;;;;;;;10.82;3.30;;;19.80;97.30;;;;;;5035522;28;20505;-75
2022/10/30 12:52:06;;;;;;;11.25;3.28;;;19.70;97.20;;;;;;5031015;28;20041;-75
2022/10/30 12:54:57;;;;;;;12.90;4.47;;;19.50;96.80;;;;;;5038114;28;20410;-75
2022/10/30 12:57:29;;;;;;;8.20;3.05;;;19.50;97.40;;;;;;5066277;28;20024;-75